Time;durP1;ratioP1;P1;durP2;ratioP2;P2;SDS_P1;SDS_P2;PMS_P1;PMS_P2;Temp;Humidity;BMP_temperature;BMP_pressure;BME280_temperature;BME280_humidity;BME280_pressure;Samples;Min_cycle;Max_cycle;Signal;HPM_P1;HPM_P2
2024/02/09 00:01:07;;;;;;;91.90;28.70;;;;;;;0.09;88.33;98242.73;217806;1256;139901;-67
2024/02/09 00:06:16;;;;;;;57.30;24.40;;;;;;;0.08;88.13;98244.06;219218;1257;139867;-68
2024/02/09 00:11:21;;;;;;;44.70;18.70;;;;;;;0.08;88.38;98244.59;219410;1257;140415;-68
2024/02/09 00:16:26;;;;;;;43.50;20.00;;;;;;;0.09;88.35;98238.85;220087;1257;140346;-71
2024/02/09 00:21:30;;;;;;;35.30;18.10;;;;;;;0.12;88.32;98238.53;219971;1256;140650;-70
2024/02/09 00:26:35;;;;;;;42.40;17.40;;;;;;;0.16;88.27;98239.70;219484;1257;140185;-70
2024/02/09 00:31:40;;;;;;;46.40;20.30;;;;;;;0.19;88.28;98235.70;218297;1256;139969;-69
2024/02/09 00:36:49;;;;;;;34.90;15.30;;;;;;;0.20;88.48;98229.16;217445;1259;141053;-69
2024/02/09 00:41:54;;;;;;;23.60;12.00;;;;;;;0.21;88.83;98224.81;217999;1257;139808;-68
2024/02/09 00:47:01;;;;;;;25.10;12.60;;;;;;;0.22;88.81;98228.20;218020;1257;140698;-69
2024/02/09 00:52:05;;;;;;;19.50;10.30;;;;;;;0.21;88.72;98232.31;219089;1259;140379;-68
2024/02/09 00:57:10;;;;;;;19.60;10.20;;;;;;;0.22;88.80;98227.15;217335;1257;140524;-68
2024/02/09 01:02:15;;;;;;;20.40;8.80;;;;;;;0.21;88.91;98223.64;218697;1257;140001;-68
2024/02/09 01:07:19;;;;;;;13.80;8.50;;;;;;;0.21;88.69;98226.75;218250;1257;140095;-68
2024/02/09 03:05:29;;;;;;;12.20;7.60;;;;;;;0.06;90.08;98159.30;217536;1257;140232;-68
2024/02/09 03:10:35;;;;;;;10.90;6.90;;;;;;;0.03;90.15;98156.27;217227;1257;139542;-67
2024/02/09 03:15:40;;;;;;;11.20;6.90;;;;;;;0.01;90.29;98163.34;217112;1259;152201;-68
2024/02/09 03:20:45;;;;;;;13.40;7.70;;;;;;;-0.02;90.29;98162.80;217482;1259;139857;-68
2024/02/09 03:25:52;;;;;;;9.50;6.10;;;;;;;-0.04;90.16;98174.89;217482;1257;140813;-67
2024/02/09 03:30:56;;;;;;;11.80;6.50;;;;;;;-0.05;90.34;98168.89;217317;1257;139452;-67
2024/02/09 03:36:01;;;;;;;11.10;6.30;;;;;;;-0.05;90.01;98171.27;218814;1257;140545;-67
2024/02/09 03:41:06;;;;;;;14.60;6.20;;;;;;;-0.04;90.59;98164.30;217997;1259;140253;-67
2024/02/09 03:46:10;;;;;;;13.50;6.40;;;;;;;-0.04;90.42;98147.29;217499;1259;139853;-67
2024/02/09 03:51:15;;;;;;;11.00;6.80;;;;;;;-0.06;90.16;98145.09;217481;1257;139997;-68
2024/02/09 03:56:20;;;;;;;12.00;5.80;;;;;;;-0.05;90.62;98136.70;218034;1256;140051;-67
2024/02/09 04:01:25;;;;;;;9.40;6.00;;;;;;;-0.06;90.58;98136.13;217283;1257;140569;-68
2024/02/09 04:06:29;;;;;;;8.60;5.40;;;;;;;-0.07;90.32;98136.45;220081;1256;140546;-68
2024/02/09 04:11:34;;;;;;;10.10;6.10;;;;;;;-0.05;90.64;98134.23;219888;1259;140512;-69
2024/02/09 04:16:39;;;;;;;10.50;5.80;;;;;;;-0.02;90.39;98137.49;218959;1259;141706;-68
2024/02/09 04:21:47;;;;;;;8.00;4.80;;;;;;;0.02;90.21;98141.65;220000;1257;140273;-69
2024/02/09 04:26:55;;;;;;;8.50;5.50;;;;;;;0.06;90.55;98136.40;217282;1257;139897;-68
2024/02/09 04:32:01;;;;;;;9.40;5.20;;;;;;;0.08;90.71;98136.64;218759;1257;139707;-68
2024/02/09 04:37:06;;;;;;;8.00;5.80;;;;;;;0.08;90.65;98135.60;218835;1257;529971;-69
2024/02/09 04:42:11;;;;;;;7.10;5.60;;;;;;;0.09;90.33;98123.58;217467;1257;139759;-68
2024/02/09 04:47:19;;;;;;;7.60;5.20;;;;;;;0.10;90.31;98116.96;217922;1259;140689;-68
2024/02/09 04:52:27;;;;;;;5.50;4.60;;;;;;;0.11;90.62;98105.84;218486;1256;139655;-68
2024/02/09 04:57:32;;;;;;;5.90;4.90;;;;;;;0.10;90.55;98099.43;217187;1260;139625;-68
2024/02/09 05:02:38;;;;;;;5.80;4.00;;;;;;;0.11;90.73;98105.07;217435;1257;141410;-68
2024/02/09 05:07:42;;;;;;;8.20;5.60;;;;;;;0.13;90.80;98105.39;217744;1260;139645;-69
2024/02/09 05:12:48;;;;;;;6.60;5.70;;;;;;;0.13;90.72;98107.65;217152;1257;140025;-68
2024/02/09 05:17:52;;;;;;;10.70;6.30;;;;;;;0.13;90.80;98112.20;218451;1259;139793;-70
2024/02/09 05:22:57;;;;;;;6.40;5.10;;;;;;;0.13;90.77;98111.55;217465;1257;140949;-68
2024/02/09 05:28:04;;;;;;;10.30;6.60;;;;;;;0.13;90.82;98106.60;217111;1260;139839;-68
2024/02/09 05:33:10;;;;;;;8.60;6.60;;;;;;;0.13;91.13;98103.49;217575;1260;140720;-68
2024/02/09 05:38:15;;;;;;;10.50;7.20;;;;;;;0.12;90.86;98091.25;218399;1257;140973;-69
2024/02/09 05:43:19;;;;;;;9.70;7.20;;;;;;;0.10;91.03;98082.55;218833;1260;140434;-68
2024/02/09 05:48:23;;;;;;;12.80;8.40;;;;;;;0.10;91.29;98081.77;218164;1258;140232;-68
2024/02/09 05:53:28;;;;;;;12.10;7.80;;;;;;;0.11;91.12;98087.83;217084;1260;140656;-68
2024/02/09 05:58:34;;;;;;;14.80;9.80;;;;;;;0.10;91.14;98093.83;218561;1259;139956;-68
2024/02/09 06:03:41;;;;;;;18.70;9.20;;;;;;;0.12;91.00;98098.55;218583;1257;140214;-68
2024/02/09 06:08:48;;;;;;;13.70;9.50;;;;;;;0.14;91.30;98101.91;219019;1259;140778;-68
2024/02/09 06:13:52;;;;;;;14.90;9.80;;;;;;;0.16;91.16;98098.80;219900;1258;140831;-69
2024/02/09 06:18:57;;;;;;;17.60;11.30;;;;;;;0.20;91.21;98092.31;217940;1259;140593;-66
2024/02/09 06:24:02;;;;;;;16.10;10.60;;;;;;;0.24;91.47;98089.15;218687;1257;140181;-66
2024/02/09 06:29:10;;;;;;;17.60;11.40;;;;;;;0.27;91.55;98082.77;217849;1260;141810;-68
2024/02/09 06:34:14;;;;;;;19.10;11.90;;;;;;;0.30;91.31;98072.74;218419;1257;139811;-69
2024/02/09 06:39:18;;;;;;;23.80;12.70;;;;;;;0.32;91.58;98066.34;218149;1258;142097;-68
2024/02/09 06:44:23;;;;;;;24.40;16.30;;;;;;;0.35;91.23;98060.89;217903;1257;140958;-67
2024/02/09 06:49:28;;;;;;;27.20;15.50;;;;;;;0.40;91.62;98060.95;218400;1257;140920;-67
2024/02/09 06:54:33;;;;;;;22.90;13.40;;;;;;;0.43;91.38;98058.44;217972;1257;140111;-67
2024/02/09 06:59:41;;;;;;;25.50;13.20;;;;;;;0.45;91.15;98061.38;218218;1257;140203;-68
2024/02/09 07:05:00;;;;;;;20.90;13.00;;;;;;;0.50;91.41;98057.95;217442;1260;141683;-68
2024/02/09 07:10:06;;;;;;;25.20;14.50;;;;;;;0.53;91.69;98057.16;217430;1260;139915;-68
2024/02/09 07:15:14;;;;;;;28.50;14.70;;;;;;;0.55;91.31;98060.02;218216;1260;140183;-67
2024/02/09 07:20:22;;;;;;;16.40;10.40;;;;;;;0.60;91.54;98070.80;218452;1259;140242;-68
2024/02/09 07:25:29;;;;;;;24.30;12.50;;;;;;;0.62;91.37;98059.76;218463;1260;140218;-68
2024/02/09 07:30:34;;;;;;;20.80;12.60;;;;;;;0.66;91.30;98052.55;217710;1258;140367;-68
2024/02/09 07:35:39;;;;;;;16.20;9.40;;;;;;;0.69;91.37;98049.02;217540;1260;141063;-69
2024/02/09 07:40:44;;;;;;;18.70;12.00;;;;;;;0.74;91.54;98044.03;217384;1260;139200;-69
2024/02/09 07:45:48;;;;;;;18.30;10.20;;;;;;;0.79;91.54;98044.96;217886;1260;140954;-68
2024/02/09 07:50:59;;;;;;;16.40;9.10;;;;;;;0.83;91.13;98039.62;219651;1256;141113;-67
2024/02/09 07:56:05;;;;;;;13.80;8.40;;;;;;;0.87;91.42;98042.00;219206;1256;139718;-73
2024/02/09 08:01:09;;;;;;;14.70;8.40;;;;;;;0.87;91.13;98045.64;220312;1257;139752;-71
2024/02/09 08:06:13;;;;;;;16.40;9.90;;;;;;;0.89;91.06;98037.48;218463;1257;139691;-70
2024/02/09 08:11:17;;;;;;;14.10;7.60;;;;;;;0.90;91.06;98026.52;218349;1257;139953;-71
2024/02/09 08:16:21;;;;;;;23.30;13.20;;;;;;;0.90;90.82;98019.91;218519;1257;139973;-68
2024/02/09 08:21:25;;;;;;;14.70;10.20;;;;;;;0.91;90.92;98011.81;218185;1257;140297;-67
2024/02/09 08:26:29;;;;;;;10.70;6.40;;;;;;;0.88;90.95;98002.38;217281;1260;140984;-66
2024/02/09 08:31:52;;;;;;;15.40;8.10;;;;;;;0.84;90.83;98001.11;217202;1260;139975;-66
2024/02/09 08:36:56;;;;;;;12.20;7.00;;;;;;;0.88;91.26;98001.48;218675;1257;139938;-67
2024/02/09 08:41:59;;;;;;;9.00;5.90;;;;;;;0.84;90.90;97996.79;218497;1257;139917;-67
2024/02/09 08:47:04;;;;;;;10.90;5.30;;;;;;;0.81;91.15;97983.86;218896;1260;140386;-67
2024/02/09 08:52:08;;;;;;;9.20;6.40;;;;;;;0.85;91.18;97972.81;217509;1257;139962;-67
2024/02/09 08:57:18;;;;;;;9.50;5.10;;;;;;;0.89;91.33;97965.96;217222;1256;139450;-67
2024/02/09 09:02:22;;;;;;;8.70;5.50;;;;;;;0.88;91.08;97962.20;218948;1260;141126;-67
2024/02/09 09:07:26;;;;;;;11.10;5.70;;;;;;;0.86;91.29;97976.23;218403;1257;139646;-67
2024/02/09 09:12:35;;;;;;;25.20;10.10;;;;;;;0.82;91.10;97980.30;217554;1257;140209;-68
2024/02/09 09:17:41;;;;;;;9.60;5.10;;;;;;;0.76;90.97;97980.64;217101;1260;139830;-68
2024/02/09 09:22:46;;;;;;;12.00;6.70;;;;;;;0.69;91.71;97983.63;217450;1257;139975;-67
2024/02/09 09:27:50;;;;;;;7.20;5.30;;;;;;;0.66;91.66;97985.41;217136;1257;140381;-67
2024/02/09 09:32:57;;;;;;;7.20;4.60;;;;;;;0.61;91.96;97984.11;217139;1257;140566;-67
2024/02/09 09:38:02;;;;;;;9.20;5.90;;;;;;;0.61;92.16;97983.06;219497;1257;139746;-72
2024/02/09 09:43:08;;;;;;;7.80;5.20;;;;;;;0.60;92.06;97975.16;219228;1257;139383;-69
2024/02/09 09:48:15;;;;;;;17.00;7.10;;;;;;;0.66;92.09;97972.64;218651;1256;139923;-69
2024/02/09 09:53:38;;;;;;;9.60;6.80;;;;;;;0.69;92.07;97967.52;219121;1257;139534;-70
2024/02/09 09:58:43;;;;;;;11.40;5.40;;;;;;;0.70;92.63;97963.33;220035;1257;140625;-70
2024/02/09 10:03:48;;;;;;;8.20;6.40;;;;;;;0.73;92.46;97956.33;220024;1257;139912;-71
2024/02/09 10:08:52;;;;;;;11.70;8.60;;;;;;;0.77;92.59;97956.13;217923;1257;139735;-70
2024/02/09 10:13:57;;;;;;;7.60;6.60;;;;;;;0.86;92.41;97953.20;217264;1257;140171;-72
2024/02/09 10:19:02;;;;;;;8.80;5.80;;;;;;;0.89;92.60;97942.91;218325;1257;140792;-72
2024/02/09 10:24:07;;;;;;;6.70;4.60;;;;;;;0.85;92.71;97936.70;217262;1257;139279;-68
2024/02/09 10:29:15;;;;;;;4.10;3.50;;;;;;;0.81;92.67;97936.25;217161;1257;139286;-68
2024/02/09 10:34:42;;;;;;;;;;;;;;;0.79;92.72;97927.55;217763;1256;140960;-70
2024/02/09 10:39:48;;;;;;;5.90;3.80;;;;;;;0.76;93.09;97917.17;218364;1257;126306;-71
2024/02/09 10:44:54;;;;;;;14.20;7.50;;;;;;;0.77;93.39;97908.44;217315;1257;140662;-74
2024/02/09 10:50:15;;;;;;;10.40;5.40;;;;;;;0.81;93.36;97902.11;217194;1260;142119;-70
2024/02/09 10:55:26;;;;;;;6.80;6.00;;;;;;;0.83;93.47;97907.78;217649;1256;140273;-71
2024/02/09 11:00:38;;;;;;;6.90;5.70;;;;;;;0.83;93.34;97908.95;218093;1257;140319;-70
2024/02/09 11:05:43;;;;;;;6.90;4.90;;;;;;;0.82;93.23;97913.48;217082;1257;140091;-71
2024/02/09 11:11:01;;;;;;;5.80;4.70;;;;;;;0.80;93.31;97907.45;217420;1257;140309;-71
2024/02/09 11:16:08;;;;;;;8.80;5.90;;;;;;;0.79;93.39;97893.21;217209;1256;140009;-67
2024/02/09 11:21:12;;;;;;;11.80;7.70;;;;;;;0.81;93.73;97892.51;217404;1256;139629;-68
2024/02/09 11:26:16;;;;;;;11.10;6.00;;;;;;;0.84;93.89;97887.20;217832;1257;140486;-67
2024/02/09 11:31:23;;;;;;;7.50;5.10;;;;;;;0.87;93.71;97883.54;218735;1257;140278;-67
2024/02/09 11:36:27;;;;;;;7.60;6.00;;;;;;;0.89;93.71;97882.48;218339;1257;139752;-68
2024/02/09 11:41:32;;;;;;;7.60;5.10;;;;;;;0.95;94.02;97873.94;218114;1256;140008;-67
2024/02/09 11:46:37;;;;;;;8.50;6.40;;;;;;;0.95;93.89;97862.48;217056;1256;139915;-68
2024/02/09 11:51:41;;;;;;;11.70;8.00;;;;;;;0.95;94.00;97858.29;217033;1259;139678;-69
2024/02/09 11:56:48;;;;;;;10.00;6.50;;;;;;;0.92;93.88;97854.00;219161;1259;139667;-68
2024/02/09 12:01:55;;;;;;;8.40;5.90;;;;;;;0.97;94.20;97848.45;219434;1256;140247;-68
2024/02/09 12:07:00;;;;;;;11.20;6.90;;;;;;;1.00;94.13;97841.20;217648;1256;139800;-67
2024/02/09 12:12:06;;;;;;;9.60;6.80;;;;;;;0.97;94.08;97834.13;217376;1256;140518;-68
2024/02/09 12:17:12;;;;;;;7.40;6.10;;;;;;;0.92;93.94;97829.46;217848;1256;139741;-66
2024/02/09 12:22:17;;;;;;;15.00;7.70;;;;;;;0.91;94.31;97824.47;217089;1256;140355;-68
2024/02/09 12:27:22;;;;;;;12.80;9.80;;;;;;;0.89;94.27;97813.34;218600;1256;140845;-67
2024/02/09 12:32:27;;;;;;;25.20;11.50;;;;;;;0.85;94.59;97803.98;217811;1256;140896;-67
2024/02/09 12:37:31;;;;;;;22.30;12.80;;;;;;;0.84;94.74;97796.56;217962;1257;140694;-66
2024/02/09 12:42:41;;;;;;;16.30;7.10;;;;;;;0.86;94.65;97801.83;217128;1256;139898;-67
2024/02/09 12:47:46;;;;;;;9.10;6.60;;;;;;;0.81;94.99;97797.64;217388;1257;140583;-68
2024/02/09 12:52:50;;;;;;;11.30;7.90;;;;;;;0.77;95.11;97780.41;217622;1257;139663;-67
2024/02/09 12:57:55;;;;;;;9.80;6.90;;;;;;;0.79;95.42;97778.42;217263;1256;139705;-67
2024/02/09 13:02:59;;;;;;;8.40;5.50;;;;;;;0.74;95.22;97766.69;217444;1256;139833;-67
2024/02/09 13:08:04;;;;;;;13.60;9.00;;;;;;;0.73;95.69;97752.91;217582;1256;139629;-68
2024/02/09 13:13:08;;;;;;;13.90;9.10;;;;;;;0.72;95.95;97750.41;218142;1259;139755;-68
2024/02/09 13:18:12;;;;;;;16.90;9.80;;;;;;;0.75;95.77;97743.58;218188;1256;140011;-68
2024/02/09 13:23:23;;;;;;;16.50;9.10;;;;;;;0.76;95.93;97743.71;217150;1257;140100;-66
2024/02/09 13:28:30;;;;;;;46.50;19.10;;;;;;;0.79;96.28;97734.73;218466;1256;141140;-68
2024/02/09 13:33:38;;;;;;;23.90;12.20;;;;;;;0.82;96.13;97728.95;218321;1256;140121;-68
2024/02/09 13:38:42;;;;;;;50.50;23.50;;;;;;;0.84;96.65;97723.13;219880;1256;140186;-70
2024/02/09 13:43:45;;;;;;;16.10;10.70;;;;;;;0.90;96.45;97726.64;219953;1256;140032;-70
2024/02/09 13:48:50;;;;;;;20.30;12.30;;;;;;;0.92;96.33;97723.08;216835;1257;151449;-70
2024/02/09 13:53:54;;;;;;;11.90;8.00;;;;;;;0.92;96.34;97721.45;218707;1256;140307;-70
2024/02/09 13:59:00;;;;;;;12.10;9.50;;;;;;;0.88;96.37;97719.73;216922;1256;139922;-70
2024/02/09 14:04:07;;;;;;;10.80;9.10;;;;;;;0.87;96.74;97715.66;217746;1259;139484;-71
2024/02/09 14:09:11;;;;;;;15.80;10.00;;;;;;;0.84;96.75;97710.73;216925;1259;139728;-68
2024/02/09 14:14:14;;;;;;;15.20;9.50;;;;;;;0.82;96.73;97697.73;217528;1256;142338;-68
2024/02/09 14:19:18;;;;;;;16.70;9.60;;;;;;;0.81;97.28;97698.43;217573;1257;139817;-69
2024/02/09 14:24:22;;;;;;;13.40;9.60;;;;;;;0.77;97.22;97699.08;217759;1256;140180;-71
2024/02/09 14:29:27;;;;;;;15.70;10.60;;;;;;;0.77;97.38;97695.90;217307;1256;140354;-70
2024/02/09 14:34:31;;;;;;;15.90;11.40;;;;;;;0.76;97.28;97695.21;216945;1256;140016;-68
2024/02/09 14:39:34;;;;;;;13.80;10.10;;;;;;;0.77;97.78;97688.42;217445;1259;139992;-68
2024/02/09 14:44:48;;;;;;;15.40;9.10;;;;;;;0.78;97.54;97687.16;217040;1257;140999;-66
2024/02/09 14:49:54;;;;;;;18.40;11.80;;;;;;;0.78;97.93;97684.18;217021;1256;140333;-65
2024/02/09 14:54:57;;;;;;;16.90;10.00;;;;;;;0.78;97.91;97681.10;217292;1257;140522;-68
2024/02/09 15:00:02;;;;;;;15.70;11.10;;;;;;;0.77;98.19;97671.00;217255;1256;139908;-66
2024/02/09 15:05:09;;;;;;;16.70;10.40;;;;;;;0.77;98.36;97670.43;217214;1256;140975;-64
2024/02/09 15:10:14;;;;;;;16.00;10.70;;;;;;;0.79;98.64;97670.33;217825;1256;140032;-68
2024/02/09 15:15:22;;;;;;;17.00;12.30;;;;;;;0.83;98.87;97673.05;217358;1256;140037;-67
2024/02/09 15:20:26;;;;;;;19.00;12.50;;;;;;;0.84;98.77;97674.63;218154;1256;140532;-68
2024/02/09 15:25:33;;;;;;;20.70;13.30;;;;;;;0.86;98.67;97678.43;218086;1256;141626;-68
2024/02/09 15:30:37;;;;;;;26.40;15.30;;;;;;;0.90;98.55;97683.10;217228;1257;139841;-66
2024/02/09 15:35:41;;;;;;;28.10;14.00;;;;;;;0.93;98.61;97686.88;217716;1256;140721;-69
2024/02/09 15:40:49;;;;;;;24.70;15.00;;;;;;;0.98;98.79;97696.89;219296;1256;141442;-69
2024/02/09 15:45:55;;;;;;;30.10;17.60;;;;;;;1.07;98.68;97697.31;218353;1257;140926;-67
2024/02/09 15:50:59;;;;;;;33.10;20.90;;;;;;;1.12;98.49;97704.34;218507;1256;140125;-70
2024/02/09 15:56:02;;;;;;;41.60;20.50;;;;;;;1.17;98.66;97700.64;218052;1256;140453;-69
2024/02/09 16:01:06;;;;;;;40.50;23.00;;;;;;;1.22;98.36;97706.00;217791;1257;139797;-73
2024/02/09 16:06:12;;;;;;;33.30;18.50;;;;;;;1.24;98.60;97710.44;217383;1257;139767;-72
2024/02/09 16:11:16;;;;;;;27.30;18.80;;;;;;;1.23;98.50;97713.42;217748;1256;139730;-71
2024/02/09 16:16:25;;;;;;;33.60;18.50;;;;;;;1.23;98.80;97707.87;218244;1259;141045;-69
2024/02/09 16:21:32;;;;;;;25.10;15.70;;;;;;;1.23;98.70;97700.81;217322;1257;140497;-67
2024/02/09 16:26:38;;;;;;;22.40;16.10;;;;;;;1.25;99.01;97699.13;217692;1257;140740;-68
2024/02/09 16:31:43;;;;;;;27.70;16.30;;;;;;;1.26;99.19;97698.99;217949;1259;140281;-71
2024/02/09 16:36:47;;;;;;;32.50;17.80;;;;;;;1.27;99.34;97700.27;217023;1256;741954;-70
2024/02/09 16:41:53;;;;;;;31.10;17.50;;;;;;;1.27;99.15;97704.19;217152;1259;140448;-67
2024/02/09 16:46:58;;;;;;;34.30;19.90;;;;;;;1.31;99.46;97711.98;217946;1256;209429;-70
2024/02/09 16:52:04;;;;;;;32.00;19.10;;;;;;;1.32;99.62;97707.83;217767;1256;140311;-70
2024/02/09 16:57:09;;;;;;;33.50;20.30;;;;;;;1.37;99.55;97715.02;218373;1257;140632;-71
2024/02/09 17:02:14;;;;;;;37.60;21.60;;;;;;;1.39;99.64;97716.41;218925;1256;140866;-69
2024/02/09 17:07:19;;;;;;;33.80;19.90;;;;;;;1.45;99.94;97718.91;218380;1256;141943;-73
2024/02/09 17:12:23;;;;;;;40.10;24.40;;;;;;;1.52;99.84;97714.25;218100;1259;140127;-70
2024/02/09 17:17:27;;;;;;;43.00;20.90;;;;;;;1.57;99.95;97714.67;218183;1257;140370;-70
2024/02/09 17:22:33;;;;;;;33.60;20.90;;;;;;;1.60;99.86;97718.21;218368;1260;140257;-68
2024/02/09 17:27:39;;;;;;;37.80;21.60;;;;;;;1.64;99.61;97705.44;217335;1257;140648;-68
2024/02/09 17:32:43;;;;;;;46.40;22.50;;;;;;;1.66;99.78;97704.23;218510;1256;141105;-68
2024/02/09 17:37:48;;;;;;;44.70;25.10;;;;;;;1.67;99.90;97704.98;217948;1257;140252;-68
2024/02/09 17:42:56;;;;;;;41.30;21.10;;;;;;;1.65;99.78;97706.70;219684;1256;140315;-68
2024/02/09 17:48:01;;;;;;;51.70;27.30;;;;;;;1.69;99.75;97705.15;219193;1256;140680;-67
2024/02/09 17:53:09;;;;;;;44.10;22.90;;;;;;;1.73;99.83;97701.19;217871;1260;139956;-68
2024/02/09 17:58:13;;;;;;;44.50;27.00;;;;;;;1.76;99.85;97697.17;217665;1257;142106;-67
2024/02/09 18:03:19;;;;;;;55.40;29.70;;;;;;;1.78;99.89;97701.21;219097;1257;140197;-68
2024/02/09 18:08:24;;;;;;;42.90;24.80;;;;;;;1.80;100.00;97697.74;218971;1257;141915;-68
2024/02/09 18:13:27;;;;;;;49.00;25.60;;;;;;;1.86;99.94;97695.77;219742;1256;140860;-68
2024/02/09 18:18:32;;;;;;;56.90;27.10;;;;;;;1.95;99.97;97690.71;219488;1259;140414;-70
2024/02/09 18:23:36;;;;;;;51.10;30.10;;;;;;;2.04;100.00;97681.30;217110;1259;139860;-73
2024/02/09 18:28:43;;;;;;;62.60;28.00;;;;;;;2.13;100.00;97681.54;218024;1256;140132;-70
2024/02/09 18:33:48;;;;;;;40.70;22.10;;;;;;;2.20;100.00;97685.36;217431;1259;140143;-72
2024/02/09 18:38:54;;;;;;;51.40;24.80;;;;;;;2.27;100.00;97683.30;216900;1257;140410;-70
2024/02/09 18:43:59;;;;;;;48.70;26.70;;;;;;;2.33;100.00;97677.77;216960;1259;151485;-70
2024/02/09 18:49:03;;;;;;;48.20;23.40;;;;;;;2.41;100.00;97684.43;217044;1257;140104;-69
2024/02/09 18:54:08;;;;;;;50.00;27.40;;;;;;;2.47;100.00;97689.17;216999;1257;140924;-70
2024/02/09 18:59:12;;;;;;;50.90;27.40;;;;;;;2.53;100.00;97690.87;217003;1259;140523;-69
2024/02/09 19:04:16;;;;;;;50.60;31.10;;;;;;;2.61;100.00;97694.52;217419;1259;141211;-70
2024/02/09 19:09:22;;;;;;;53.10;28.00;;;;;;;2.70;100.00;97698.16;218151;1257;209254;-70
2024/02/09 19:14:26;;;;;;;49.10;25.20;;;;;;;2.78;100.00;97694.41;216970;1257;140851;-69
2024/02/09 19:19:31;;;;;;;51.30;27.70;;;;;;;2.85;100.00;97692.54;216970;1257;140456;-70
2024/02/09 19:24:37;;;;;;;58.70;31.30;;;;;;;2.90;100.00;97692.95;219923;1256;140156;-70
2024/02/09 19:29:41;;;;;;;77.40;35.70;;;;;;;2.96;100.00;97692.55;219825;1256;140520;-71
2024/02/09 19:34:46;;;;;;;53.10;28.50;;;;;;;3.03;100.00;97697.38;217999;1257;140289;-70
2024/02/09 19:39:51;;;;;;;60.50;33.60;;;;;;;3.10;100.00;97692.20;217195;1259;141009;-70
2024/02/09 19:44:55;;;;;;;69.50;31.70;;;;;;;3.11;100.00;97685.95;217141;1256;140772;-69
2024/02/09 19:50:00;;;;;;;54.90;33.20;;;;;;;3.14;100.00;97677.44;217053;1259;140287;-70
2024/02/09 19:55:04;;;;;;;58.80;29.70;;;;;;;3.17;100.00;97685.16;217069;1259;141171;-70
2024/02/09 20:00:12;;;;;;;49.50;24.60;;;;;;;3.20;100.00;97687.39;217030;1257;140997;-69
2024/02/09 20:05:18;;;;;;;80.50;37.40;;;;;;;3.22;100.00;97688.00;218941;1256;141279;-70
2024/02/09 20:10:23;;;;;;;146.80;56.30;;;;;;;3.25;100.00;97691.05;216940;1259;140927;-70
2024/02/09 20:15:27;;;;;;;113.30;48.40;;;;;;;3.28;100.00;97694.00;217788;1259;141101;-69
2024/02/09 20:20:32;;;;;;;71.10;33.30;;;;;;;3.28;100.00;97692.48;217295;1259;141861;-69
2024/02/09 20:25:38;;;;;;;67.60;36.00;;;;;;;3.28;100.00;97693.10;216852;1255;142027;-69
2024/02/09 20:30:45;;;;;;;62.20;34.50;;;;;;;3.25;100.00;97690.58;217060;1256;140269;-69
2024/02/09 20:35:55;;;;;;;58.90;32.80;;;;;;;3.21;100.00;97690.77;216869;1259;140395;-69
2024/02/09 20:41:06;;;;;;;49.90;25.20;;;;;;;3.21;100.00;97698.79;218931;1257;140905;-70
2024/02/09 20:46:15;;;;;;;44.20;23.70;;;;;;;3.22;100.00;97698.26;217533;1257;140424;-70
2024/02/09 20:51:21;;;;;;;48.80;28.20;;;;;;;3.23;100.00;97698.27;217007;1257;139963;-70
2024/02/09 20:56:26;;;;;;;53.60;30.70;;;;;;;3.23;100.00;97707.66;216883;1257;140180;-69
2024/02/09 21:01:35;;;;;;;54.50;29.70;;;;;;;3.26;100.00;97715.66;217142;1256;140497;-69
2024/02/09 21:06:40;;;;;;;65.90;36.50;;;;;;;3.30;100.00;97716.42;216613;1257;139884;-69
2024/02/09 21:11:44;;;;;;;58.60;33.00;;;;;;;3.34;100.00;97715.88;217000;1256;140793;-70
2024/02/09 21:16:51;;;;;;;67.30;32.80;;;;;;;3.37;100.00;97711.79;217252;1259;140799;-69
2024/02/09 21:21:58;;;;;;;60.70;33.00;;;;;;;3.39;100.00;97705.66;217310;1260;142236;-69
2024/02/09 21:27:03;;;;;;;56.80;32.70;;;;;;;3.41;100.00;97713.77;216922;1257;140014;-68
2024/02/09 21:32:12;;;;;;;74.20;36.90;;;;;;;3.44;100.00;97714.02;219429;1257;140312;-70
2024/02/09 21:37:16;;;;;;;71.00;37.40;;;;;;;3.47;100.00;97716.02;219919;1256;140227;-69
2024/02/09 21:42:22;;;;;;;51.40;25.60;;;;;;;3.51;100.00;97717.56;219922;1257;140801;-69
2024/02/09 21:47:28;;;;;;;56.90;32.10;;;;;;;3.57;100.00;97721.71;216985;1259;140718;-70
2024/02/09 21:52:33;;;;;;;58.80;35.70;;;;;;;3.63;100.00;97720.93;216893;1257;141650;-69
2024/02/09 21:57:37;;;;;;;66.20;36.70;;;;;;;3.68;100.00;97717.27;217204;1257;140797;-69
2024/02/09 22:02:42;;;;;;;58.30;34.70;;;;;;;3.72;100.00;97724.58;217923;1257;140640;-70
2024/02/09 22:07:48;;;;;;;52.90;31.10;;;;;;;3.74;100.00;97729.15;217316;1259;140371;-69
2024/02/09 22:12:54;;;;;;;62.20;35.60;;;;;;;3.75;100.00;97727.69;216856;1257;140796;-69
2024/02/09 22:17:59;;;;;;;71.10;37.30;;;;;;;3.72;100.00;97726.90;216537;1257;141104;-69
2024/02/09 22:23:05;;;;;;;71.30;36.20;;;;;;;3.65;100.00;97726.91;217127;1259;140662;-69
2024/02/09 22:28:09;;;;;;;64.10;36.70;;;;;;;3.59;100.00;97724.50;217234;1259;140493;-70
2024/02/09 22:33:12;;;;;;;94.90;45.30;;;;;;;3.55;100.00;97727.58;216882;1259;140049;-70
2024/02/09 22:38:17;;;;;;;86.40;41.00;;;;;;;3.53;100.00;97725.70;216894;1259;140048;-69
2024/02/09 22:43:23;;;;;;;65.30;31.80;;;;;;;3.52;100.00;97728.64;216861;1257;139966;-69
2024/02/09 22:48:30;;;;;;;91.50;42.70;;;;;;;3.52;100.00;97728.95;216831;1259;140557;-69
2024/02/09 22:53:35;;;;;;;75.20;40.30;;;;;;;3.51;100.00;97729.05;216913;1259;140133;-69
2024/02/09 22:58:43;;;;;;;53.50;32.60;;;;;;;3.52;100.00;97731.02;217630;1259;141596;-70
2024/02/09 23:03:48;;;;;;;55.20;34.80;;;;;;;3.54;100.00;97735.80;218497;1257;140506;-69
2024/02/09 23:08:53;;;;;;;57.40;28.50;;;;;;;3.56;100.00;97741.47;216873;1259;140582;-69
2024/02/09 23:14:01;;;;;;;59.30;33.40;;;;;;;3.59;100.00;97738.30;217105;1256;140468;-69
2024/02/09 23:19:05;;;;;;;46.50;29.80;;;;;;;3.63;100.00;97732.94;219900;1259;141633;-70
2024/02/09 23:24:10;;;;;;;70.80;36.00;;;;;;;3.67;100.00;97731.46;219973;1257;140533;-70
2024/02/09 23:29:14;;;;;;;56.90;36.00;;;;;;;3.74;100.00;97728.66;219947;1259;140686;-70
2024/02/09 23:34:19;;;;;;;60.60;37.40;;;;;;;3.82;100.00;97729.54;217649;1258;140310;-68
2024/02/09 23:39:24;;;;;;;69.60;35.50;;;;;;;3.90;100.00;97721.81;217005;1260;140821;-69
2024/02/09 23:44:31;;;;;;;72.10;36.20;;;;;;;3.94;100.00;97720.09;217154;1260;139873;-69
2024/02/09 23:49:37;;;;;;;71.80;34.20;;;;;;;3.96;100.00;97710.64;216745;1262;140316;-69
2024/02/09 23:54:44;;;;;;;51.30;31.60;;;;;;;3.98;100.00;97705.89;217195;1262;140169;-69
2024/02/09 23:59:49;;;;;;;57.60;32.50;;;;;;;3.95;100.00;97699.45;216734;1260;141917;-69
